createdAt,value
2024-03-24T00:00:10.542Z,99187.27
2024-03-24T00:05:38.263Z,99185.45
2024-03-24T00:10:41.201Z,99193.82
2024-03-24T00:15:44.338Z,99197.95
2024-03-24T00:20:47.261Z,99196.14
2024-03-24T00:25:50.345Z,99188.05
2024-03-24T00:30:53.399Z,99186.25
2024-03-24T00:35:58.207Z,99188.19
2024-03-24T00:41:01.270Z,99186.91
2024-03-24T00:46:05.005Z,99178.61
2024-03-24T00:51:08.103Z,99170.98
2024-03-24T00:56:10.957Z,99163.45
2024-03-24T01:01:14.032Z,99155.05
2024-03-24T01:06:16.957Z,99154.35
2024-03-24T01:11:20.026Z,99152.84
2024-03-24T01:16:23.162Z,99148.11
2024-03-24T01:21:26.136Z,99148.80
2024-03-24T01:26:29.087Z,99151.77
2024-03-24T01:31:32.131Z,99149.48
2024-03-24T01:36:35.189Z,99149.06
2024-03-24T01:41:38.084Z,99149.13
2024-03-24T01:46:41.249Z,99136.58
2024-03-24T01:51:44.242Z,99126.72
2024-03-24T01:56:47.210Z,99129.76
2024-03-24T02:01:51.131Z,99130.36
2024-03-24T02:06:54.202Z,99116.82
2024-03-24T02:11:57.414Z,99106.13
2024-03-24T02:17:01.682Z,99115.23
2024-03-24T02:22:04.814Z,99125.17
2024-03-24T02:27:07.765Z,99124.54
2024-03-24T02:32:10.755Z,99103.21
2024-03-24T02:37:13.732Z,99116.06
2024-03-24T02:42:16.758Z,99126.88
2024-03-24T02:47:19.732Z,99137.07
2024-03-24T02:52:22.750Z,99141.27
2024-03-24T02:57:27.021Z,99159.89
2024-03-24T03:02:29.970Z,99169.17
2024-03-24T03:07:33.177Z,99186.30
2024-03-24T03:12:37.250Z,99179.66
2024-03-24T03:17:40.451Z,99169.27
2024-03-24T03:22:43.641Z,99162.42
2024-03-24T03:27:46.522Z,99160.91
2024-03-24T03:32:49.508Z,99168.32
2024-03-24T03:37:52.614Z,99165.29
2024-03-24T03:42:55.664Z,99157.06
2024-03-24T03:47:58.659Z,99146.05
2024-03-24T03:53:02.896Z,99140.80
2024-03-24T03:58:05.883Z,99138.27
2024-03-24T04:03:08.871Z,99128.25
2024-03-24T04:08:12.745Z,99122.04
2024-03-24T04:13:15.794Z,99120.90
2024-03-24T04:18:18.839Z,99109.39
2024-03-24T04:23:21.867Z,99106.02
2024-03-24T04:28:24.906Z,99104.38
2024-03-24T04:33:27.945Z,99109.77
2024-03-24T04:38:31.392Z,99109.91
2024-03-24T04:43:34.821Z,99117.55
2024-03-24T04:48:38.128Z,99119.77
2024-03-24T04:53:41.536Z,99126.60
2024-03-24T04:58:44.613Z,99129.58
2024-03-24T05:03:47.715Z,99125.46
2024-03-24T05:08:51.881Z,99125.48
2024-03-24T05:13:54.860Z,99128.09
2024-03-24T05:18:57.883Z,99126.06
2024-03-24T05:24:00.984Z,99126.06
2024-03-24T05:29:05.948Z,99118.98
2024-03-24T05:34:10.561Z,99116.33
2024-03-24T05:39:13.686Z,99108.14
2024-03-24T05:44:17.605Z,99117.59
2024-03-24T05:49:20.722Z,99121.02
2024-03-24T05:54:23.669Z,99114.14
2024-03-24T05:59:26.763Z,99115.01
2024-03-24T06:04:31.917Z,99119.98
2024-03-24T06:09:39.737Z,99120.52
2024-03-24T06:14:42.671Z,99120.71
2024-03-24T06:19:45.606Z,99117.95
2024-03-24T06:24:48.723Z,99114.23
2024-03-24T06:29:51.731Z,99112.75
2024-03-24T06:34:54.719Z,99117.63
2024-03-24T06:39:57.681Z,99120.06
2024-03-24T06:45:08.793Z,99114.65
2024-03-24T06:50:11.860Z,99117.83
2024-03-24T06:55:15.146Z,99114.38
2024-03-24T07:00:21.585Z,99121.84
2024-03-24T07:05:24.764Z,99123.22
2024-03-24T07:10:27.685Z,99126.30
2024-03-24T07:15:31.097Z,99132.62
2024-03-24T07:20:34.751Z,99131.16
2024-03-24T07:25:37.812Z,99133.91
2024-03-24T07:30:40.855Z,99136.27
2024-03-24T07:35:44.407Z,99143.84
2024-03-24T07:40:47.618Z,99146.16
2024-03-24T07:45:50.718Z,99148.42
2024-03-24T07:50:53.769Z,99150.51
2024-03-24T07:55:58.982Z,99152.65
2024-03-24T08:01:02.148Z,99154.37
2024-03-24T08:06:05.589Z,99158.73
2024-03-24T08:11:08.502Z,99159.00
2024-03-24T08:16:11.472Z,99159.88
2024-03-24T08:21:17.041Z,99163.17
2024-03-24T08:26:19.937Z,99164.62
2024-03-24T08:31:25.583Z,99166.08
2024-03-24T08:36:28.677Z,99164.56
2024-03-24T08:41:31.646Z,99163.91
2024-03-24T08:46:34.645Z,99168.17
2024-03-24T08:51:37.984Z,99168.96
2024-03-24T08:56:40.986Z,99169.56
2024-03-24T09:01:45.512Z,99167.77
2024-03-24T09:06:48.549Z,99163.52
2024-03-24T09:11:52.789Z,99166.62
2024-03-24T09:16:55.799Z,99171.14
2024-03-24T09:21:58.891Z,99174.77
2024-03-24T09:27:03.945Z,99175.02
2024-03-24T09:32:06.934Z,99174.11
2024-03-24T09:37:10.147Z,99171.30
2024-03-24T09:42:16.589Z,99169.83
2024-03-24T09:47:19.767Z,99169.25
2024-03-24T09:52:24.164Z,99170.85
2024-03-24T09:57:34.491Z,99166.51
2024-03-24T10:02:37.488Z,99160.90
2024-03-24T10:07:40.917Z,99152.82
2024-03-24T10:12:54.987Z,99157.42
2024-03-24T10:18:23.308Z,99154.58
2024-03-24T10:23:30.783Z,99152.43
2024-03-24T10:28:34.263Z,99141.59
2024-03-24T10:33:40.561Z,99129.20
2024-03-24T10:38:44.640Z,99122.45
2024-03-24T10:43:48.884Z,99115.67
2024-03-24T10:48:52.995Z,99118.85
2024-03-24T10:54:01.460Z,99112.44
2024-03-24T10:59:05.455Z,99109.91
2024-03-24T11:04:09.564Z,99110.23
2024-03-24T11:09:13.587Z,99099.19
2024-03-24T11:14:16.792Z,99092.71
2024-03-24T11:19:27.836Z,99089.66
2024-03-24T11:24:35.885Z,99086.22
2024-03-24T11:29:51.960Z,99083.85
2024-03-24T11:35:00.692Z,99077.25
2024-03-24T11:40:04.726Z,99069.27
2024-03-24T11:45:28.146Z,99069.67
2024-03-24T11:50:31.375Z,99071.04
2024-03-24T11:55:35.160Z,99066.58
2024-03-24T12:00:38.728Z,99067.60
2024-03-24T12:05:41.631Z,99059.96
2024-03-24T12:10:48.417Z,99060.25
2024-03-24T12:15:51.530Z,99060.98
2024-03-24T12:20:54.878Z,99060.63
2024-03-24T12:25:57.815Z,99055.05
2024-03-24T12:31:01.433Z,99055.98
2024-03-24T12:36:05.750Z,99051.23
2024-03-24T12:41:08.963Z,99042.46
2024-03-24T12:46:11.954Z,99038.61
2024-03-24T12:51:15.696Z,99024.72
2024-03-24T12:56:21.240Z,99014.77
2024-03-24T13:01:25.921Z,99008.52
2024-03-24T13:06:32.024Z,99008.88
2024-03-24T13:11:35.323Z,98997.67
2024-03-24T13:16:44.080Z,99001.02
2024-03-24T13:21:54.138Z,98994.72
2024-03-24T13:27:00.584Z,98991.70
2024-03-24T13:32:03.825Z,98989.07
2024-03-24T13:37:17.751Z,98990.71
2024-03-24T13:42:24.417Z,98995.31
2024-03-24T13:47:38.457Z,98993.27
2024-03-24T13:52:42.968Z,98993.01
2024-03-24T13:57:46.023Z,98998.43
2024-03-24T14:02:49.198Z,99000.00
2024-03-24T14:07:52.296Z,98998.38
2024-03-24T14:13:17.491Z,99005.00
2024-03-24T14:18:33.088Z,99002.15
2024-03-24T14:24:05.941Z,98993.17
2024-03-24T14:29:08.867Z,98993.33
2024-03-24T14:34:11.938Z,98991.26
2024-03-24T14:39:35.058Z,98985.42
2024-03-24T14:45:13.840Z,98977.46
2024-03-24T14:50:17.091Z,98975.98
2024-03-24T14:55:20.369Z,98981.60
2024-03-24T15:00:24.651Z,98978.23
2024-03-24T15:05:28.629Z,98978.17
2024-03-24T15:10:31.787Z,98977.20
2024-03-24T15:15:37.437Z,98977.29
2024-03-24T15:20:40.465Z,98979.96
2024-03-24T15:25:43.440Z,98976.02
2024-03-24T15:30:47.796Z,98979.09
2024-03-24T15:35:50.892Z,98981.25
2024-03-24T15:40:53.852Z,98977.18
2024-03-24T15:45:57.031Z,98986.75
2024-03-24T15:51:00.487Z,98997.39
2024-03-24T15:56:29.338Z,99002.34
2024-03-24T16:01:43.889Z,99015.75
2024-03-24T16:06:47.321Z,99036.08
2024-03-24T16:11:56.408Z,99041.98
2024-03-24T16:16:59.639Z,99041.47
2024-03-24T16:22:25.645Z,99036.66
2024-03-24T16:27:28.870Z,99036.27
2024-03-24T16:32:31.967Z,99025.59
2024-03-24T16:37:35.186Z,99030.84
2024-03-24T16:42:38.762Z,99025.33
2024-03-24T16:47:41.774Z,99013.80
2024-03-24T16:52:45.069Z,99014.08
2024-03-24T16:57:48.210Z,99010.48
2024-03-24T17:02:51.838Z,99013.90
2024-03-24T17:07:57.874Z,99015.56
2024-03-24T17:13:00.996Z,99026.28
2024-03-24T17:18:04.435Z,99026.02
2024-03-24T17:23:07.687Z,99030.00
2024-03-24T17:28:10.825Z,99035.48
2024-03-24T17:33:14.903Z,99040.23
2024-03-24T17:38:20.183Z,99045.86
2024-03-24T17:43:23.553Z,99047.94
2024-03-24T17:48:26.738Z,99051.91
2024-03-24T17:53:35.657Z,99058.66
2024-03-24T17:58:41.746Z,99055.46
2024-03-24T18:03:48.478Z,99051.30
2024-03-24T18:09:09.834Z,99054.83
2024-03-24T18:14:13.118Z,99064.27
2024-03-24T18:19:16.547Z,99062.20
2024-03-24T18:24:19.620Z,99058.85
2024-03-24T18:29:23.007Z,99064.91
2024-03-24T18:34:26.252Z,99057.58
2024-03-24T18:39:29.417Z,99058.82
2024-03-24T18:44:32.517Z,99059.44
2024-03-24T18:49:35.924Z,99060.13
2024-03-24T18:54:39.322Z,99061.43
2024-03-24T18:59:44.664Z,99059.61
2024-03-24T19:04:48.056Z,99061.27
2024-03-24T19:10:34.531Z,99062.30
2024-03-24T19:15:46.447Z,99060.98
2024-03-24T19:20:49.715Z,99062.37
2024-03-24T19:25:56.881Z,99055.35
2024-03-24T19:31:05.471Z,99050.96
2024-03-24T19:36:11.704Z,99050.88
2024-03-24T19:41:16.013Z,99053.27
2024-03-24T19:46:19.681Z,99054.64
2024-03-24T19:51:22.815Z,99047.91
2024-03-24T19:56:27.613Z,99047.04
2024-03-24T20:01:52.330Z,99043.46
2024-03-24T20:06:55.501Z,99043.30
2024-03-24T20:11:59.618Z,99040.92
2024-03-24T20:17:02.698Z,99039.05
2024-03-24T20:22:05.856Z,99033.44
2024-03-24T20:27:08.982Z,99026.71
2024-03-24T20:32:20.832Z,99023.17
2024-03-24T20:37:23.834Z,99019.46
2024-03-24T20:42:26.980Z,99015.45
2024-03-24T20:47:30.103Z,99012.46
2024-03-24T20:52:33.114Z,99008.60
2024-03-24T20:57:36.346Z,99002.26
2024-03-24T21:02:39.708Z,98997.08
2024-03-24T21:07:42.733Z,98994.23
2024-03-24T21:12:45.871Z,98990.64
2024-03-24T21:18:29.600Z,98990.84
2024-03-24T21:23:32.617Z,98991.80
2024-03-24T21:28:35.723Z,98985.88
2024-03-24T21:33:38.929Z,98979.66
2024-03-24T21:39:00.484Z,98980.60
2024-03-24T21:44:03.768Z,98984.02
2024-03-24T21:49:06.833Z,98983.35
2024-03-24T21:54:09.969Z,98984.05
2024-03-24T21:59:13.320Z,98985.85
2024-03-24T22:04:17.730Z,98990.83
2024-03-24T22:09:21.401Z,98990.95
2024-03-24T22:14:24.501Z,98980.35
2024-03-24T22:19:27.593Z,98973.98
2024-03-24T22:24:31.365Z,98971.10
2024-03-24T22:29:34.519Z,98964.91
2024-03-24T22:34:37.665Z,98954.52
2024-03-24T22:39:40.921Z,98949.73
2024-03-24T22:44:44.009Z,98950.73
2024-03-24T22:49:47.027Z,98935.48
2024-03-24T22:54:50.071Z,98929.02
2024-03-24T22:59:53.105Z,98921.17
2024-03-24T23:04:56.049Z,98921.35
2024-03-24T23:09:59.447Z,98916.20
2024-03-24T23:15:02.635Z,98916.84
2024-03-24T23:20:07.192Z,98911.51
2024-03-24T23:25:30.439Z,98918.75
2024-03-24T23:30:33.643Z,98920.65
2024-03-24T23:35:36.846Z,98915.73
2024-03-24T23:40:39.874Z,98916.45
2024-03-24T23:45:42.934Z,98920.14
2024-03-24T23:50:46.108Z,98922.42
2024-03-24T23:55:49.279Z,98918.51
